sensor_id;sensor_type;location;lat;lon;timestamp;P1;durP1;ratioP1;P2;durP2;ratioP2
20482;SDS011;10400;53.198;6.592;2023-03-12T00:00:30;5.70;;;3.20;;
20482;SDS011;10400;53.198;6.592;2023-03-12T00:02:56;12.37;;;3.93;;
20482;SDS011;10400;53.198;6.592;2023-03-12T00:05:22;5.37;;;3.03;;
20482;SDS011;10400;53.198;6.592;2023-03-12T00:07:50;12.90;;;3.30;;
20482;SDS011;10400;53.198;6.592;2023-03-12T00:10:16;7.27;;;3.27;;
20482;SDS011;10400;53.198;6.592;2023-03-12T00:12:42;7.17;;;3.17;;
20482;SDS011;10400;53.198;6.592;2023-03-12T00:15:08;5.57;;;2.90;;
20482;SDS011;10400;53.198;6.592;2023-03-12T00:17:34;4.73;;;3.20;;
20482;SDS011;10400;53.198;6.592;2023-03-12T00:20:00;6.70;;;3.03;;
20482;SDS011;10400;53.198;6.592;2023-03-12T00:22:26;5.07;;;3.03;;
20482;SDS011;10400;53.198;6.592;2023-03-12T00:24:52;6.10;;;3.10;;
20482;SDS011;10400;53.198;6.592;2023-03-12T00:27:19;6.77;;;3.13;;
20482;SDS011;10400;53.198;6.592;2023-03-12T00:29:45;8.37;;;3.37;;
20482;SDS011;10400;53.198;6.592;2023-03-12T00:32:11;8.60;;;3.40;;
20482;SDS011;10400;53.198;6.592;2023-03-12T00:34:37;5.47;;;3.97;;
20482;SDS011;10400;53.198;6.592;2023-03-12T00:37:03;7.90;;;3.10;;
20482;SDS011;10400;53.198;6.592;2023-03-12T00:39:28;8.33;;;3.40;;
20482;SDS011;10400;53.198;6.592;2023-03-12T00:41:54;4.83;;;3.20;;
20482;SDS011;10400;53.198;6.592;2023-03-12T00:44:19;6.03;;;3.30;;
20482;SDS011;10400;53.198;6.592;2023-03-12T00:46:45;5.17;;;3.77;;
20482;SDS011;10400;53.198;6.592;2023-03-12T00:49:11;7.37;;;3.00;;
20482;SDS011;10400;53.198;6.592;2023-03-12T00:51:37;6.87;;;3.50;;
20482;SDS011;10400;53.198;6.592;2023-03-12T00:54:03;5.30;;;3.27;;
20482;SDS011;10400;53.198;6.592;2023-03-12T00:56:29;6.23;;;3.70;;
20482;SDS011;10400;53.198;6.592;2023-03-12T00:58:55;10.87;;;3.73;;
20482;SDS011;10400;53.198;6.592;2023-03-12T01:01:20;4.23;;;3.20;;
20482;SDS011;10400;53.198;6.592;2023-03-12T01:03:46;4.77;;;3.50;;
20482;SDS011;10400;53.198;6.592;2023-03-12T01:06:12;4.90;;;3.10;;
20482;SDS011;10400;53.198;6.592;2023-03-12T01:08:37;7.00;;;4.03;;
20482;SDS011;10400;53.198;6.592;2023-03-12T01:11:03;7.67;;;3.87;;
20482;SDS011;10400;53.198;6.592;2023-03-12T01:13:29;4.83;;;3.67;;
20482;SDS011;10400;53.198;6.592;2023-03-12T01:15:55;11.57;;;4.47;;
20482;SDS011;10400;53.198;6.592;2023-03-12T01:18:21;5.70;;;3.73;;
20482;SDS011;10400;53.198;6.592;2023-03-12T01:20:47;5.90;;;3.97;;
20482;SDS011;10400;53.198;6.592;2023-03-12T01:23:13;7.77;;;4.13;;
20482;SDS011;10400;53.198;6.592;2023-03-12T01:25:39;6.07;;;4.30;;
20482;SDS011;10400;53.198;6.592;2023-03-12T01:28:05;13.03;;;4.57;;
20482;SDS011;10400;53.198;6.592;2023-03-12T01:30:31;8.23;;;4.23;;
20482;SDS011;10400;53.198;6.592;2023-03-12T01:32:57;9.33;;;4.00;;
20482;SDS011;10400;53.198;6.592;2023-03-12T01:35:23;9.80;;;5.23;;
20482;SDS011;10400;53.198;6.592;2023-03-12T01:37:49;8.93;;;4.27;;
20482;SDS011;10400;53.198;6.592;2023-03-12T01:40:19;10.13;;;4.23;;
20482;SDS011;10400;53.198;6.592;2023-03-12T01:42:53;9.37;;;4.50;;
20482;SDS011;10400;53.198;6.592;2023-03-12T01:48:19;6.77;;;4.57;;
20482;SDS011;10400;53.198;6.592;2023-03-12T01:50:45;6.27;;;4.60;;
20482;SDS011;10400;53.198;6.592;2023-03-12T01:53:10;12.03;;;5.77;;
20482;SDS011;10400;53.198;6.592;2023-03-12T01:55:36;10.07;;;6.37;;
20482;SDS011;10400;53.198;6.592;2023-03-12T01:58:02;9.47;;;6.53;;
20482;SDS011;10400;53.198;6.592;2023-03-12T02:00:30;11.23;;;6.60;;
20482;SDS011;10400;53.198;6.592;2023-03-12T02:03:00;12.93;;;6.60;;
20482;SDS011;10400;53.198;6.592;2023-03-12T02:08:17;16.20;;;8.83;;
20482;SDS011;10400;53.198;6.592;2023-03-12T02:10:43;14.07;;;8.17;;
20482;SDS011;10400;53.198;6.592;2023-03-12T02:13:10;12.33;;;5.97;;
20482;SDS011;10400;53.198;6.592;2023-03-12T02:15:36;7.40;;;5.20;;
20482;SDS011;10400;53.198;6.592;2023-03-12T02:18:03;9.03;;;5.37;;
20482;SDS011;10400;53.198;6.592;2023-03-12T02:23:12;7.07;;;4.97;;
20482;SDS011;10400;53.198;6.592;2023-03-12T02:25:50;7.20;;;4.63;;
20482;SDS011;10400;53.198;6.592;2023-03-12T02:28:19;7.60;;;4.73;;
20482;SDS011;10400;53.198;6.592;2023-03-12T02:30:48;5.40;;;4.10;;
20482;SDS011;10400;53.198;6.592;2023-03-12T02:33:15;9.63;;;4.80;;
20482;SDS011;10400;53.198;6.592;2023-03-12T02:35:41;6.97;;;4.20;;
20482;SDS011;10400;53.198;6.592;2023-03-12T02:40:57;7.97;;;4.40;;
20482;SDS011;10400;53.198;6.592;2023-03-12T02:43:25;9.30;;;3.93;;
20482;SDS011;10400;53.198;6.592;2023-03-12T02:45:52;7.20;;;4.20;;
20482;SDS011;10400;53.198;6.592;2023-03-12T02:48:19;8.70;;;3.97;;
20482;SDS011;10400;53.198;6.592;2023-03-12T02:50:45;6.53;;;3.93;;
20482;SDS011;10400;53.198;6.592;2023-03-12T02:53:11;7.53;;;3.93;;
20482;SDS011;10400;53.198;6.592;2023-03-12T02:55:36;12.03;;;3.57;;
20482;SDS011;10400;53.198;6.592;2023-03-12T02:58:02;6.20;;;3.80;;
20482;SDS011;10400;53.198;6.592;2023-03-12T03:00:28;8.43;;;3.50;;
20482;SDS011;10400;53.198;6.592;2023-03-12T03:02:57;10.43;;;3.57;;
20482;SDS011;10400;53.198;6.592;2023-03-12T03:05:23;3.93;;;3.20;;
20482;SDS011;10400;53.198;6.592;2023-03-12T03:07:49;6.57;;;3.53;;
20482;SDS011;10400;53.198;6.592;2023-03-12T03:10:14;5.57;;;3.13;;
20482;SDS011;10400;53.198;6.592;2023-03-12T03:12:41;9.50;;;3.40;;
20482;SDS011;10400;53.198;6.592;2023-03-12T03:15:07;5.40;;;3.30;;
20482;SDS011;10400;53.198;6.592;2023-03-12T03:17:33;7.00;;;3.20;;
20482;SDS011;10400;53.198;6.592;2023-03-12T03:19:59;12.00;;;3.40;;
20482;SDS011;10400;53.198;6.592;2023-03-12T03:22:25;5.47;;;3.20;;
20482;SDS011;10400;53.198;6.592;2023-03-12T03:24:51;7.27;;;3.20;;
20482;SDS011;10400;53.198;6.592;2023-03-12T03:27:17;6.93;;;3.07;;
20482;SDS011;10400;53.198;6.592;2023-03-12T03:29:44;4.33;;;3.30;;
20482;SDS011;10400;53.198;6.592;2023-03-12T03:32:10;7.33;;;2.93;;
20482;SDS011;10400;53.198;6.592;2023-03-12T03:34:36;5.37;;;3.10;;
20482;SDS011;10400;53.198;6.592;2023-03-12T03:37:02;10.07;;;3.97;;
20482;SDS011;10400;53.198;6.592;2023-03-12T03:39:28;5.17;;;3.40;;
20482;SDS011;10400;53.198;6.592;2023-03-12T03:41:54;10.67;;;3.30;;
20482;SDS011;10400;53.198;6.592;2023-03-12T03:44:20;5.83;;;3.10;;
20482;SDS011;10400;53.198;6.592;2023-03-12T03:46:47;6.60;;;3.10;;
20482;SDS011;10400;53.198;6.592;2023-03-12T03:49:13;7.77;;;3.30;;
20482;SDS011;10400;53.198;6.592;2023-03-12T03:51:39;9.00;;;3.53;;
20482;SDS011;10400;53.198;6.592;2023-03-12T03:54:06;6.00;;;3.67;;
20482;SDS011;10400;53.198;6.592;2023-03-12T03:56:32;7.80;;;3.57;;
20482;SDS011;10400;53.198;6.592;2023-03-12T03:58:59;6.93;;;3.40;;
20482;SDS011;10400;53.198;6.592;2023-03-12T04:01:26;5.83;;;3.50;;
20482;SDS011;10400;53.198;6.592;2023-03-12T04:03:52;7.43;;;3.33;;
20482;SDS011;10400;53.198;6.592;2023-03-12T04:06:18;4.90;;;3.33;;
20482;SDS011;10400;53.198;6.592;2023-03-12T04:08:44;3.90;;;3.20;;
20482;SDS011;10400;53.198;6.592;2023-03-12T04:11:11;5.63;;;2.83;;
20482;SDS011;10400;53.198;6.592;2023-03-12T04:13:38;9.37;;;3.27;;
20482;SDS011;10400;53.198;6.592;2023-03-12T04:16:05;7.10;;;3.20;;
20482;SDS011;10400;53.198;6.592;2023-03-12T04:18:31;8.77;;;3.50;;
20482;SDS011;10400;53.198;6.592;2023-03-12T04:20:56;6.87;;;3.40;;
20482;SDS011;10400;53.198;6.592;2023-03-12T04:23:22;6.53;;;3.27;;
20482;SDS011;10400;53.198;6.592;2023-03-12T04:25:48;6.73;;;3.20;;
20482;SDS011;10400;53.198;6.592;2023-03-12T04:28:13;5.50;;;3.30;;
20482;SDS011;10400;53.198;6.592;2023-03-12T04:30:39;5.13;;;3.07;;
20482;SDS011;10400;53.198;6.592;2023-03-12T04:33:05;6.13;;;3.03;;
20482;SDS011;10400;53.198;6.592;2023-03-12T04:35:31;6.00;;;3.37;;
20482;SDS011;10400;53.198;6.592;2023-03-12T04:37:57;6.60;;;3.17;;
20482;SDS011;10400;53.198;6.592;2023-03-12T04:40:24;6.83;;;3.50;;
20482;SDS011;10400;53.198;6.592;2023-03-12T04:42:50;5.67;;;3.43;;
20482;SDS011;10400;53.198;6.592;2023-03-12T04:45:16;6.17;;;3.27;;
20482;SDS011;10400;53.198;6.592;2023-03-12T04:47:42;9.60;;;3.53;;
20482;SDS011;10400;53.198;6.592;2023-03-12T04:50:07;7.73;;;3.50;;
20482;SDS011;10400;53.198;6.592;2023-03-12T04:52:34;5.40;;;3.43;;
20482;SDS011;10400;53.198;6.592;2023-03-12T04:54:59;8.87;;;3.07;;
20482;SDS011;10400;53.198;6.592;2023-03-12T04:57:26;4.87;;;3.60;;
20482;SDS011;10400;53.198;6.592;2023-03-12T04:59:51;6.43;;;3.67;;
20482;SDS011;10400;53.198;6.592;2023-03-12T05:02:17;8.07;;;3.83;;
20482;SDS011;10400;53.198;6.592;2023-03-12T05:04:43;6.33;;;3.23;;
20482;SDS011;10400;53.198;6.592;2023-03-12T05:07:09;7.63;;;3.50;;
20482;SDS011;10400;53.198;6.592;2023-03-12T05:09:35;7.43;;;3.73;;
20482;SDS011;10400;53.198;6.592;2023-03-12T05:12:00;8.00;;;3.70;;
20482;SDS011;10400;53.198;6.592;2023-03-12T05:14:26;7.60;;;3.37;;
20482;SDS011;10400;53.198;6.592;2023-03-12T05:16:52;8.60;;;3.43;;
20482;SDS011;10400;53.198;6.592;2023-03-12T05:19:17;6.53;;;3.47;;
20482;SDS011;10400;53.198;6.592;2023-03-12T05:21:43;11.40;;;3.40;;
20482;SDS011;10400;53.198;6.592;2023-03-12T05:24:09;5.60;;;3.70;;
20482;SDS011;10400;53.198;6.592;2023-03-12T05:26:35;7.47;;;3.83;;
20482;SDS011;10400;53.198;6.592;2023-03-12T05:29:02;8.40;;;3.63;;
20482;SDS011;10400;53.198;6.592;2023-03-12T05:31:29;5.53;;;3.47;;
20482;SDS011;10400;53.198;6.592;2023-03-12T05:33:59;6.80;;;3.43;;
20482;SDS011;10400;53.198;6.592;2023-03-12T05:36:26;9.60;;;3.33;;
20482;SDS011;10400;53.198;6.592;2023-03-12T05:38:51;5.97;;;3.60;;
20482;SDS011;10400;53.198;6.592;2023-03-12T05:41:24;6.13;;;3.37;;
20482;SDS011;10400;53.198;6.592;2023-03-12T05:43:52;9.03;;;3.90;;
20482;SDS011;10400;53.198;6.592;2023-03-12T05:46:20;6.00;;;3.67;;
20482;SDS011;10400;53.198;6.592;2023-03-12T05:48:46;6.53;;;3.53;;
20482;SDS011;10400;53.198;6.592;2023-03-12T05:51:12;9.40;;;3.90;;
20482;SDS011;10400;53.198;6.592;2023-03-12T05:53:38;8.50;;;3.63;;
20482;SDS011;10400;53.198;6.592;2023-03-12T05:56:05;7.13;;;3.70;;
20482;SDS011;10400;53.198;6.592;2023-03-12T05:58:33;7.87;;;3.83;;
20482;SDS011;10400;53.198;6.592;2023-03-12T06:01:00;7.13;;;3.27;;
20482;SDS011;10400;53.198;6.592;2023-03-12T06:03:26;6.17;;;3.70;;
20482;SDS011;10400;53.198;6.592;2023-03-12T06:05:52;7.43;;;3.90;;
20482;SDS011;10400;53.198;6.592;2023-03-12T06:08:22;7.10;;;3.57;;
20482;SDS011;10400;53.198;6.592;2023-03-12T06:10:51;7.27;;;3.30;;
20482;SDS011;10400;53.198;6.592;2023-03-12T06:13:19;5.90;;;3.53;;
20482;SDS011;10400;53.198;6.592;2023-03-12T06:15:46;6.90;;;3.73;;
20482;SDS011;10400;53.198;6.592;2023-03-12T06:18:12;9.70;;;4.00;;
20482;SDS011;10400;53.198;6.592;2023-03-12T06:20:37;9.57;;;4.03;;
20482;SDS011;10400;53.198;6.592;2023-03-12T06:23:03;8.33;;;3.93;;
20482;SDS011;10400;53.198;6.592;2023-03-12T06:25:28;8.07;;;4.10;;
20482;SDS011;10400;53.198;6.592;2023-03-12T06:27:54;6.60;;;3.70;;
20482;SDS011;10400;53.198;6.592;2023-03-12T06:30:20;8.80;;;3.73;;
20482;SDS011;10400;53.198;6.592;2023-03-12T06:32:45;11.87;;;3.87;;
20482;SDS011;10400;53.198;6.592;2023-03-12T06:35:11;6.40;;;3.83;;
20482;SDS011;10400;53.198;6.592;2023-03-12T06:37:37;8.17;;;3.67;;
20482;SDS011;10400;53.198;6.592;2023-03-12T06:40:02;11.83;;;4.20;;
20482;SDS011;10400;53.198;6.592;2023-03-12T06:42:29;6.03;;;3.83;;
20482;SDS011;10400;53.198;6.592;2023-03-12T06:44:54;10.40;;;3.90;;
20482;SDS011;10400;53.198;6.592;2023-03-12T06:47:20;6.27;;;4.07;;
20482;SDS011;10400;53.198;6.592;2023-03-12T06:49:46;9.73;;;4.13;;
20482;SDS011;10400;53.198;6.592;2023-03-12T06:52:12;11.47;;;4.30;;
20482;SDS011;10400;53.198;6.592;2023-03-12T06:54:37;7.87;;;4.17;;
20482;SDS011;10400;53.198;6.592;2023-03-12T06:57:03;8.50;;;4.20;;
20482;SDS011;10400;53.198;6.592;2023-03-12T06:59:29;9.53;;;4.80;;
20482;SDS011;10400;53.198;6.592;2023-03-12T07:01:54;8.67;;;4.57;;
20482;SDS011;10400;53.198;6.592;2023-03-12T07:04:20;7.73;;;4.67;;
20482;SDS011;10400;53.198;6.592;2023-03-12T07:06:46;7.13;;;3.90;;
20482;SDS011;10400;53.198;6.592;2023-03-12T07:09:14;8.43;;;4.60;;
20482;SDS011;10400;53.198;6.592;2023-03-12T07:11:42;6.97;;;4.53;;
20482;SDS011;10400;53.198;6.592;2023-03-12T07:14:08;8.93;;;4.90;;
20482;SDS011;10400;53.198;6.592;2023-03-12T07:16:34;12.07;;;5.37;;
20482;SDS011;10400;53.198;6.592;2023-03-12T07:19:00;8.07;;;4.30;;
20482;SDS011;10400;53.198;6.592;2023-03-12T07:21:26;10.10;;;5.00;;
20482;SDS011;10400;53.198;6.592;2023-03-12T07:23:52;9.10;;;5.37;;
20482;SDS011;10400;53.198;6.592;2023-03-12T07:26:18;9.83;;;4.80;;
20482;SDS011;10400;53.198;6.592;2023-03-12T07:28:44;12.77;;;5.40;;
20482;SDS011;10400;53.198;6.592;2023-03-12T07:31:10;10.30;;;4.87;;
20482;SDS011;10400;53.198;6.592;2023-03-12T07:33:36;11.93;;;5.50;;
20482;SDS011;10400;53.198;6.592;2023-03-12T07:36:02;8.20;;;5.10;;
20482;SDS011;10400;53.198;6.592;2023-03-12T07:38:28;7.30;;;5.40;;
20482;SDS011;10400;53.198;6.592;2023-03-12T07:40:55;14.27;;;5.57;;
20482;SDS011;10400;53.198;6.592;2023-03-12T07:43:22;9.87;;;4.90;;
20482;SDS011;10400;53.198;6.592;2023-03-12T07:45:49;12.93;;;5.57;;
20482;SDS011;10400;53.198;6.592;2023-03-12T07:48:15;9.03;;;5.97;;
20482;SDS011;10400;53.198;6.592;2023-03-12T07:50:41;12.47;;;6.07;;
20482;SDS011;10400;53.198;6.592;2023-03-12T07:53:06;9.57;;;6.07;;
20482;SDS011;10400;53.198;6.592;2023-03-12T07:55:32;8.37;;;6.20;;
20482;SDS011;10400;53.198;6.592;2023-03-12T07:57:59;11.60;;;6.23;;
20482;SDS011;10400;53.198;6.592;2023-03-12T08:00:25;13.73;;;6.43;;
20482;SDS011;10400;53.198;6.592;2023-03-12T08:02:51;12.10;;;6.53;;
20482;SDS011;10400;53.198;6.592;2023-03-12T08:05:17;9.57;;;6.63;;
20482;SDS011;10400;53.198;6.592;2023-03-12T08:07:43;12.83;;;7.07;;
20482;SDS011;10400;53.198;6.592;2023-03-12T08:10:09;10.13;;;6.80;;
20482;SDS011;10400;53.198;6.592;2023-03-12T08:12:36;12.67;;;7.03;;
20482;SDS011;10400;53.198;6.592;2023-03-12T08:15:03;12.10;;;6.30;;
20482;SDS011;10400;53.198;6.592;2023-03-12T08:17:29;12.23;;;7.37;;
20482;SDS011;10400;53.198;6.592;2023-03-12T08:19:55;12.33;;;7.20;;
20482;SDS011;10400;53.198;6.592;2023-03-12T08:22:20;12.97;;;7.67;;
20482;SDS011;10400;53.198;6.592;2023-03-12T08:24:46;10.43;;;7.40;;
20482;SDS011;10400;53.198;6.592;2023-03-12T08:27:12;13.13;;;7.30;;
20482;SDS011;10400;53.198;6.592;2023-03-12T08:29:38;14.17;;;7.20;;
20482;SDS011;10400;53.198;6.592;2023-03-12T08:32:04;10.27;;;7.50;;
20482;SDS011;10400;53.198;6.592;2023-03-12T08:34:30;9.83;;;7.40;;
20482;SDS011;10400;53.198;6.592;2023-03-12T08:36:56;13.47;;;7.73;;
20482;SDS011;10400;53.198;6.592;2023-03-12T08:39:22;10.37;;;7.43;;
20482;SDS011;10400;53.198;6.592;2023-03-12T08:41:47;12.77;;;7.63;;
20482;SDS011;10400;53.198;6.592;2023-03-12T08:44:13;12.93;;;7.50;;
20482;SDS011;10400;53.198;6.592;2023-03-12T08:46:38;11.87;;;6.37;;
20482;SDS011;10400;53.198;6.592;2023-03-12T08:49:04;8.47;;;6.50;;
20482;SDS011;10400;53.198;6.592;2023-03-12T08:51:30;11.27;;;6.87;;
20482;SDS011;10400;53.198;6.592;2023-03-12T08:53:55;11.73;;;6.37;;
20482;SDS011;10400;53.198;6.592;2023-03-12T08:56:21;10.93;;;6.67;;
20482;SDS011;10400;53.198;6.592;2023-03-12T08:58:47;10.07;;;6.87;;
20482;SDS011;10400;53.198;6.592;2023-03-12T09:01:12;9.17;;;6.20;;
20482;SDS011;10400;53.198;6.592;2023-03-12T09:03:39;11.20;;;6.70;;
20482;SDS011;10400;53.198;6.592;2023-03-12T09:06:08;11.00;;;6.50;;
20482;SDS011;10400;53.198;6.592;2023-03-12T09:08:39;10.47;;;6.07;;
20482;SDS011;10400;53.198;6.592;2023-03-12T09:11:05;8.27;;;5.70;;
20482;SDS011;10400;53.198;6.592;2023-03-12T09:13:32;9.57;;;6.17;;
20482;SDS011;10400;53.198;6.592;2023-03-12T09:16:01;12.27;;;5.80;;
20482;SDS011;10400;53.198;6.592;2023-03-12T09:18:28;10.17;;;6.43;;
20482;SDS011;10400;53.198;6.592;2023-03-12T09:20:54;10.67;;;6.50;;
20482;SDS011;10400;53.198;6.592;2023-03-12T09:23:20;14.60;;;6.40;;
20482;SDS011;10400;53.198;6.592;2023-03-12T09:25:46;8.53;;;5.90;;
20482;SDS011;10400;53.198;6.592;2023-03-12T09:28:12;13.67;;;5.97;;
20482;SDS011;10400;53.198;6.592;2023-03-12T09:30:38;9.77;;;5.57;;
20482;SDS011;10400;53.198;6.592;2023-03-12T09:33:04;10.00;;;5.90;;
20482;SDS011;10400;53.198;6.592;2023-03-12T09:35:30;7.77;;;5.83;;
20482;SDS011;10400;53.198;6.592;2023-03-12T09:37:56;9.20;;;7.00;;
20482;SDS011;10400;53.198;6.592;2023-03-12T09:40:23;8.40;;;6.10;;
20482;SDS011;10400;53.198;6.592;2023-03-12T09:43:00;7.33;;;6.50;;
20482;SDS011;10400;53.198;6.592;2023-03-12T09:45:31;9.40;;;6.50;;
20482;SDS011;10400;53.198;6.592;2023-03-12T09:48:06;10.20;;;7.03;;
20482;SDS011;10400;53.198;6.592;2023-03-12T09:50:47;12.30;;;7.50;;
20482;SDS011;10400;53.198;6.592;2023-03-12T09:55:57;9.70;;;7.07;;
20482;SDS011;10400;53.198;6.592;2023-03-12T09:58:30;14.23;;;8.00;;
20482;SDS011;10400;53.198;6.592;2023-03-12T10:01:05;11.00;;;8.03;;
20482;SDS011;10400;53.198;6.592;2023-03-12T10:15:19;12.87;;;8.97;;
20482;SDS011;10400;53.198;6.592;2023-03-12T10:18:00;13.37;;;8.70;;
20482;SDS011;10400;53.198;6.592;2023-03-12T10:20:45;12.83;;;8.27;;
20482;SDS011;10400;53.198;6.592;2023-03-12T10:26:23;10.80;;;8.27;;
20482;SDS011;10400;53.198;6.592;2023-03-12T10:28:56;9.87;;;8.63;;
20482;SDS011;10400;53.198;6.592;2023-03-12T10:31:35;11.63;;;8.87;;
20482;SDS011;10400;53.198;6.592;2023-03-12T10:34:27;13.43;;;8.57;;
20482;SDS011;10400;53.198;6.592;2023-03-12T10:37:08;10.57;;;8.50;;
20482;SDS011;10400;53.198;6.592;2023-03-12T10:39:42;14.03;;;8.47;;
20482;SDS011;10400;53.198;6.592;2023-03-12T10:42:19;9.97;;;8.43;;
20482;SDS011;10400;53.198;6.592;2023-03-12T10:44:50;10.83;;;8.73;;
20482;SDS011;10400;53.198;6.592;2023-03-12T10:47:37;11.13;;;8.37;;
20482;SDS011;10400;53.198;6.592;2023-03-12T10:52:41;12.57;;;8.73;;
20482;SDS011;10400;53.198;6.592;2023-03-12T10:57:45;13.73;;;8.80;;
20482;SDS011;10400;53.198;6.592;2023-03-12T11:00:16;10.23;;;8.60;;
20482;SDS011;10400;53.198;6.592;2023-03-12T11:02:54;13.60;;;9.13;;
20482;SDS011;10400;53.198;6.592;2023-03-12T11:05:28;12.33;;;9.10;;
20482;SDS011;10400;53.198;6.592;2023-03-12T11:07:54;14.00;;;10.33;;
20482;SDS011;10400;53.198;6.592;2023-03-12T11:10:22;16.53;;;10.13;;
20482;SDS011;10400;53.198;6.592;2023-03-12T11:13:18;14.20;;;9.93;;
20482;SDS011;10400;53.198;6.592;2023-03-12T11:15:45;11.13;;;9.60;;
20482;SDS011;10400;53.198;6.592;2023-03-12T11:18:19;11.80;;;9.90;;
20482;SDS011;10400;53.198;6.592;2023-03-12T11:20:54;11.57;;;9.33;;
20482;SDS011;10400;53.198;6.592;2023-03-12T11:23:22;13.07;;;9.80;;
20482;SDS011;10400;53.198;6.592;2023-03-12T11:25:57;11.67;;;10.37;;
20482;SDS011;10400;53.198;6.592;2023-03-12T11:28:35;15.20;;;11.17;;
20482;SDS011;10400;53.198;6.592;2023-03-12T11:31:02;11.60;;;9.50;;
20482;SDS011;10400;53.198;6.592;2023-03-12T11:33:32;13.93;;;9.80;;
20482;SDS011;10400;53.198;6.592;2023-03-12T11:36:05;15.57;;;11.17;;
20482;SDS011;10400;53.198;6.592;2023-03-12T11:44:14;14.17;;;10.30;;
20482;SDS011;10400;53.198;6.592;2023-03-12T11:49:33;14.73;;;10.33;;
20482;SDS011;10400;53.198;6.592;2023-03-12T11:52:24;12.67;;;10.23;;
20482;SDS011;10400;53.198;6.592;2023-03-12T11:55:12;15.20;;;10.07;;
20482;SDS011;10400;53.198;6.592;2023-03-12T12:00:30;11.03;;;9.40;;
20482;SDS011;10400;53.198;6.592;2023-03-12T12:08:49;14.03;;;10.60;;
20482;SDS011;10400;53.198;6.592;2023-03-12T12:11:41;13.77;;;10.20;;
20482;SDS011;10400;53.198;6.592;2023-03-12T12:14:28;15.67;;;10.63;;
20482;SDS011;10400;53.198;6.592;2023-03-12T12:36:39;13.33;;;10.23;;
20482;SDS011;10400;53.198;6.592;2023-03-12T12:39:22;13.40;;;9.63;;
20482;SDS011;10400;53.198;6.592;2023-03-12T12:41:56;12.75;;;9.45;;
20482;SDS011;10400;53.198;6.592;2023-03-12T12:44:26;14.77;;;10.40;;
20482;SDS011;10400;53.198;6.592;2023-03-12T12:47:28;14.90;;;10.18;;
20482;SDS011;10400;53.198;6.592;2023-03-12T12:50:00;14.82;;;9.88;;
20482;SDS011;10400;53.198;6.592;2023-03-12T12:52:27;13.23;;;10.48;;
20482;SDS011;10400;53.198;6.592;2023-03-12T12:57:51;13.88;;;10.40;;
20482;SDS011;10400;53.198;6.592;2023-03-12T13:03:20;17.85;;;10.23;;
20482;SDS011;10400;53.198;6.592;2023-03-12T13:05:57;16.55;;;11.70;;
20482;SDS011;10400;53.198;6.592;2023-03-12T13:13:42;18.75;;;11.38;;
20482;SDS011;10400;53.198;6.592;2023-03-12T13:24:13;20.10;;;11.20;;
20482;SDS011;10400;53.198;6.592;2023-03-12T13:27:07;25.05;;;10.98;;
20482;SDS011;10400;53.198;6.592;2023-03-12T13:29:45;19.70;;;11.57;;
20482;SDS011;10400;53.198;6.592;2023-03-12T13:34:58;24.02;;;11.70;;
20482;SDS011;10400;53.198;6.592;2023-03-12T13:37:56;26.95;;;11.45;;
20482;SDS011;10400;53.198;6.592;2023-03-12T13:43:10;20.02;;;10.35;;
20482;SDS011;10400;53.198;6.592;2023-03-12T13:48:17;22.65;;;10.45;;
20482;SDS011;10400;53.198;6.592;2023-03-12T13:50:49;25.25;;;10.48;;
20482;SDS011;10400;53.198;6.592;2023-03-12T13:53:24;24.83;;;8.88;;
20482;SDS011;10400;53.198;6.592;2023-03-12T13:56:00;24.27;;;9.43;;
20482;SDS011;10400;53.198;6.592;2023-03-12T13:58:37;28.10;;;9.45;;
20482;SDS011;10400;53.198;6.592;2023-03-12T14:01:25;23.77;;;8.02;;
20482;SDS011;10400;53.198;6.592;2023-03-12T14:03:55;26.85;;;7.88;;
20482;SDS011;10400;53.198;6.592;2023-03-12T14:06:28;26.75;;;8.15;;
20482;SDS011;10400;53.198;6.592;2023-03-12T14:09:23;27.50;;;7.53;;
20482;SDS011;10400;53.198;6.592;2023-03-12T14:12:12;31.83;;;7.45;;
20482;SDS011;10400;53.198;6.592;2023-03-12T14:15:04;25.88;;;7.10;;
20482;SDS011;10400;53.198;6.592;2023-03-12T14:17:38;30.10;;;7.18;;
20482;SDS011;10400;53.198;6.592;2023-03-12T14:20:24;26.58;;;6.45;;
20482;SDS011;10400;53.198;6.592;2023-03-12T14:22:52;27.80;;;6.97;;
20482;SDS011;10400;53.198;6.592;2023-03-12T14:25:35;28.35;;;7.32;;
20482;SDS011;10400;53.198;6.592;2023-03-12T14:28:13;24.75;;;7.80;;
20482;SDS011;10400;53.198;6.592;2023-03-12T14:33:13;26.60;;;6.80;;
20482;SDS011;10400;53.198;6.592;2023-03-12T14:35:41;24.00;;;6.72;;
20482;SDS011;10400;53.198;6.592;2023-03-12T14:38:29;24.15;;;6.28;;
20482;SDS011;10400;53.198;6.592;2023-03-12T14:43:32;24.55;;;6.25;;
20482;SDS011;10400;53.198;6.592;2023-03-12T14:46:00;29.48;;;7.03;;
20482;SDS011;10400;53.198;6.592;2023-03-12T14:48:29;31.20;;;7.07;;
20482;SDS011;10400;53.198;6.592;2023-03-12T14:51:00;20.65;;;6.95;;
20482;SDS011;10400;53.198;6.592;2023-03-12T14:53:28;29.27;;;7.05;;
20482;SDS011;10400;53.198;6.592;2023-03-12T14:56:13;26.27;;;6.95;;
20482;SDS011;10400;53.198;6.592;2023-03-12T14:58:53;32.20;;;6.43;;
20482;SDS011;10400;53.198;6.592;2023-03-12T15:01:20;31.95;;;6.70;;
20482;SDS011;10400;53.198;6.592;2023-03-12T15:03:49;28.00;;;6.20;;
20482;SDS011;10400;53.198;6.592;2023-03-12T15:06:35;27.70;;;7.00;;
20482;SDS011;10400;53.198;6.592;2023-03-12T15:09:04;34.85;;;6.18;;
20482;SDS011;10400;53.198;6.592;2023-03-12T15:11:35;33.47;;;6.82;;
20482;SDS011;10400;53.198;6.592;2023-03-12T15:14:06;27.63;;;5.82;;
20482;SDS011;10400;53.198;6.592;2023-03-12T15:16:36;31.02;;;6.15;;
20482;SDS011;10400;53.198;6.592;2023-03-12T15:19:02;33.78;;;7.28;;
20482;SDS011;10400;53.198;6.592;2023-03-12T15:21:30;33.63;;;7.07;;
20482;SDS011;10400;53.198;6.592;2023-03-12T15:24:00;34.65;;;7.03;;
20482;SDS011;10400;53.198;6.592;2023-03-12T15:26:27;45.80;;;8.10;;
20482;SDS011;10400;53.198;6.592;2023-03-12T15:31:23;30.40;;;5.82;;
20482;SDS011;10400;53.198;6.592;2023-03-12T15:33:58;32.50;;;7.15;;
20482;SDS011;10400;53.198;6.592;2023-03-12T15:36:30;42.75;;;7.25;;
20482;SDS011;10400;53.198;6.592;2023-03-12T15:41:33;34.65;;;6.20;;
20482;SDS011;10400;53.198;6.592;2023-03-12T15:44:20;29.42;;;5.32;;
20482;SDS011;10400;53.198;6.592;2023-03-12T15:46:48;32.65;;;6.30;;
20482;SDS011;10400;53.198;6.592;2023-03-12T15:49:20;40.45;;;7.35;;
20482;SDS011;10400;53.198;6.592;2023-03-12T15:57:33;35.78;;;5.82;;
20482;SDS011;10400;53.198;6.592;2023-03-12T16:02:59;34.00;;;5.75;;
20482;SDS011;10400;53.198;6.592;2023-03-12T16:07:58;38.03;;;6.22;;
20482;SDS011;10400;53.198;6.592;2023-03-12T16:10:36;40.47;;;7.13;;
20482;SDS011;10400;53.198;6.592;2023-03-12T16:13:03;35.13;;;6.75;;
20482;SDS011;10400;53.198;6.592;2023-03-12T16:15:31;33.75;;;6.78;;
20482;SDS011;10400;53.198;6.592;2023-03-12T16:17:59;36.63;;;7.10;;
20482;SDS011;10400;53.198;6.592;2023-03-12T16:20:25;33.30;;;7.05;;
20482;SDS011;10400;53.198;6.592;2023-03-12T16:22:51;34.40;;;6.50;;
20482;SDS011;10400;53.198;6.592;2023-03-12T16:25:17;32.67;;;6.35;;
20482;SDS011;10400;53.198;6.592;2023-03-12T16:27:48;38.10;;;7.00;;
20482;SDS011;10400;53.198;6.592;2023-03-12T16:30:22;36.47;;;7.22;;
20482;SDS011;10400;53.198;6.592;2023-03-12T16:32:53;34.45;;;6.43;;
20482;SDS011;10400;53.198;6.592;2023-03-12T16:35:20;28.23;;;6.55;;
20482;SDS011;10400;53.198;6.592;2023-03-12T16:37:45;28.40;;;6.22;;
20482;SDS011;10400;53.198;6.592;2023-03-12T16:40:12;46.28;;;10.13;;
20482;SDS011;10400;53.198;6.592;2023-03-12T16:42:39;38.67;;;6.82;;
20482;SDS011;10400;53.198;6.592;2023-03-12T16:45:08;42.08;;;7.22;;
20482;SDS011;10400;53.198;6.592;2023-03-12T16:47:36;34.08;;;6.88;;
20482;SDS011;10400;53.198;6.592;2023-03-12T16:50:09;38.10;;;6.28;;